createdAt,value
2022-11-05T00:02:08.359Z,2.45
2022-11-05T00:04:57.988Z,1.20
2022-11-05T00:08:02.474Z,1.30
2022-11-05T00:10:36.840Z,1.20
2022-11-05T00:13:28.651Z,1.00
2022-11-05T00:16:18.098Z,1.07
2022-11-05T00:18:51.822Z,1.05
2022-11-05T00:21:41.729Z,0.95
2022-11-05T00:24:31.304Z,1.20
2022-11-05T00:27:03.445Z,1.05
2022-11-05T00:29:35.775Z,1.57
2022-11-05T00:32:07.880Z,1.07
2022-11-05T00:34:39.755Z,0.82
2022-11-05T00:37:11.782Z,0.93
2022-11-05T00:39:43.652Z,0.88
2022-11-05T00:42:33.324Z,0.80
2022-11-05T00:45:06.521Z,1.07
2022-11-05T00:47:57.161Z,1.10
2022-11-05T00:50:29.361Z,1.00
2022-11-05T00:53:02.059Z,0.90
2022-11-05T00:55:39.714Z,0.90
2022-11-05T00:58:13.915Z,0.90
2022-11-05T01:00:48.625Z,0.80
2022-11-05T01:03:23.646Z,1.00
2022-11-05T01:05:57.939Z,0.93
2022-11-05T01:08:29.969Z,0.57
2022-11-05T01:11:01.874Z,1.00
2022-11-05T01:13:33.757Z,0.90
2022-11-05T01:16:10.980Z,0.80
2022-11-05T01:18:42.872Z,0.93
2022-11-05T01:21:16.028Z,1.05
2022-11-05T01:23:48.030Z,0.90
2022-11-05T01:26:19.934Z,1.22
2022-11-05T01:28:57.282Z,0.90
2022-11-05T01:31:29.336Z,0.98
2022-11-05T01:34:02.167Z,1.10
2022-11-05T01:36:34.165Z,0.90
2022-11-05T01:39:06.155Z,0.95
2022-11-05T01:41:38.369Z,0.75
2022-11-05T01:44:48.017Z,0.90
2022-11-05T01:47:37.653Z,1.30
2022-11-05T01:50:27.574Z,1.07
2022-11-05T01:53:27.816Z,1.20
2022-11-05T01:56:11.732Z,1.30
2022-11-05T01:58:46.743Z,1.22
2022-11-05T02:01:19.073Z,1.00
2022-11-05T02:03:53.915Z,1.07
2022-11-05T02:06:28.657Z,1.07
2022-11-05T02:09:03.711Z,0.90
2022-11-05T02:11:35.856Z,1.42
2022-11-05T02:14:07.928Z,1.00
2022-11-05T02:16:51.602Z,1.10
2022-11-05T02:19:50.086Z,1.42
2022-11-05T02:22:41.427Z,1.30
2022-11-05T02:25:37.159Z,1.00
2022-11-05T02:28:17.798Z,0.98
2022-11-05T02:30:52.597Z,1.20
2022-11-05T02:33:54.363Z,1.80
2022-11-05T02:36:38.071Z,1.22
2022-11-05T02:39:27.524Z,1.20
2022-11-05T02:42:18.429Z,1.47
2022-11-05T02:45:01.880Z,1.30
2022-11-05T02:47:53.003Z,1.60
2022-11-05T02:50:33.480Z,1.10
2022-11-05T02:53:14.574Z,1.40
2022-11-05T02:55:52.657Z,1.40
2022-11-05T02:58:24.632Z,1.35
2022-11-05T03:00:57.941Z,1.20
2022-11-05T03:03:32.644Z,1.10
2022-11-05T03:06:19.097Z,1.47
2022-11-05T03:09:26.487Z,1.20
2022-11-05T03:12:22.424Z,1.35
2022-11-05T03:15:03.416Z,1.07
2022-11-05T03:17:40.795Z,1.32
2022-11-05T03:20:27.186Z,1.40
2022-11-05T03:23:26.362Z,1.57
2022-11-05T03:26:04.168Z,1.30
2022-11-05T03:28:39.175Z,1.47
2022-11-05T03:31:14.371Z,2.05
2022-11-05T03:33:48.695Z,1.22
2022-11-05T03:36:23.539Z,1.17
2022-11-05T03:38:58.115Z,1.25
2022-11-05T03:41:32.814Z,1.30
2022-11-05T03:44:08.168Z,2.37
2022-11-05T03:46:49.513Z,1.20
2022-11-05T03:49:24.368Z,1.45
2022-11-05T03:52:01.684Z,1.98
2022-11-05T03:54:35.891Z,1.42
2022-11-05T03:57:22.297Z,1.10
2022-11-05T03:59:54.330Z,1.57
2022-11-05T04:02:28.505Z,1.70
2022-11-05T04:07:50.378Z,1.45
2022-11-05T04:10:42.047Z,1.57
2022-11-05T04:13:26.165Z,1.60
2022-11-05T04:16:16.006Z,1.65
2022-11-05T04:18:47.987Z,2.37
2022-11-05T04:21:37.813Z,1.25
2022-11-05T04:24:09.912Z,1.60
2022-11-05T04:26:44.746Z,1.75
2022-11-05T04:29:34.364Z,1.50
2022-11-05T04:32:06.631Z,2.08
2022-11-05T04:34:38.561Z,2.22
2022-11-05T04:37:10.592Z,2.40
2022-11-05T04:39:42.483Z,2.65
2022-11-05T04:42:14.510Z,1.82
2022-11-05T04:44:46.473Z,1.80
2022-11-05T04:47:18.570Z,1.62
2022-11-05T04:49:50.616Z,1.40
2022-11-05T04:52:22.776Z,1.75
2022-11-05T04:54:55.191Z,1.70
2022-11-05T04:57:27.235Z,1.57
2022-11-05T04:59:59.430Z,1.60
2022-11-05T05:02:33.264Z,4.25
2022-11-05T05:05:06.375Z,1.67
2022-11-05T05:07:38.327Z,1.65
2022-11-05T05:10:11.517Z,1.60
2022-11-05T05:12:43.451Z,1.40
2022-11-05T05:15:15.397Z,1.60
2022-11-05T05:17:52.454Z,1.45
2022-11-05T05:20:42.219Z,1.62
2022-11-05T05:23:14.435Z,1.55
2022-11-05T05:25:46.584Z,1.52
2022-11-05T05:28:18.664Z,1.95
2022-11-05T05:30:53.634Z,1.92
2022-11-05T05:33:24.371Z,1.70
2022-11-05T05:36:04.701Z,2.00
2022-11-05T05:38:36.471Z,1.32
2022-11-05T05:41:08.732Z,1.32
2022-11-05T05:43:40.848Z,1.85
2022-11-05T05:46:15.129Z,1.90
2022-11-05T05:51:20.269Z,1.57
2022-11-05T05:53:53.828Z,1.75
2022-11-05T05:56:25.790Z,1.72
2022-11-05T05:58:57.728Z,2.62
2022-11-05T06:01:29.770Z,1.95
2022-11-05T06:04:01.779Z,3.08
2022-11-05T06:06:34.066Z,5.10
2022-11-05T06:09:06.517Z,1.62
2022-11-05T06:11:38.602Z,1.45
2022-11-05T06:14:14.599Z,1.50
2022-11-05T06:16:46.657Z,1.37
2022-11-05T06:19:18.837Z,1.80
2022-11-05T06:21:51.044Z,1.40
2022-11-05T06:24:23.967Z,1.27
2022-11-05T06:26:55.898Z,1.00
2022-11-05T06:29:28.132Z,1.50
2022-11-05T06:32:00.152Z,1.40
2022-11-05T06:34:32.078Z,1.80
2022-11-05T06:37:04.076Z,1.90
2022-11-05T06:39:36.026Z,1.65
2022-11-05T06:42:23.615Z,1.27
2022-11-05T06:44:42.023Z,1.67
2022-11-05T06:47:14.050Z,1.55
2022-11-05T06:49:46.693Z,1.90
2022-11-05T06:52:18.606Z,1.50
2022-11-05T06:54:51.172Z,2.90
2022-11-05T06:57:23.204Z,2.45
2022-11-05T07:00:00.620Z,1.72
2022-11-05T07:02:28.693Z,1.35
2022-11-05T07:05:00.772Z,1.70
2022-11-05T07:07:32.865Z,2.00
2022-11-05T07:10:06.408Z,4.90
2022-11-05T07:12:38.599Z,2.97
2022-11-05T07:15:12.322Z,1.30
2022-11-05T07:17:44.325Z,2.02
2022-11-05T07:20:16.725Z,2.02
2022-11-05T07:22:49.758Z,1.27
2022-11-05T07:25:22.770Z,1.60
2022-11-05T07:27:55.246Z,1.70
2022-11-05T07:30:27.766Z,1.77
2022-11-05T07:33:00.105Z,1.72
2022-11-05T07:35:32.303Z,1.30
2022-11-05T07:38:05.361Z,1.62
2022-11-05T07:40:37.767Z,1.62
2022-11-05T07:45:45.955Z,1.72
2022-11-05T07:48:18.366Z,1.82
2022-11-05T07:50:53.523Z,2.45
2022-11-05T07:53:25.415Z,1.72
2022-11-05T07:55:59.125Z,1.52
2022-11-05T07:58:31.585Z,2.17
2022-11-05T08:01:03.837Z,1.98
2022-11-05T08:03:36.759Z,1.85
2022-11-05T08:06:08.943Z,1.50
2022-11-05T08:08:40.768Z,1.87
2022-11-05T08:11:13.439Z,2.02
2022-11-05T08:13:45.378Z,8.95
2022-11-05T08:16:18.065Z,1.98
2022-11-05T08:18:50.036Z,4.90
2022-11-05T08:21:22.144Z,1.75
2022-11-05T08:23:54.134Z,1.70
2022-11-05T08:26:26.145Z,1.65
2022-11-05T08:28:58.283Z,1.55
2022-11-05T08:31:31.183Z,1.40
2022-11-05T08:34:03.165Z,1.95
2022-11-05T08:36:36.919Z,17.00
2022-11-05T08:39:14.303Z,2.25
2022-11-05T08:44:13.978Z,2.35
2022-11-05T08:46:46.091Z,1.82
2022-11-05T08:49:18.029Z,1.90
2022-11-05T08:51:50.286Z,1.40
2022-11-05T08:54:22.357Z,1.77
2022-11-05T08:56:54.632Z,2.17
2022-11-05T08:59:27.346Z,1.30
2022-11-05T09:01:59.821Z,2.22
2022-11-05T09:04:31.963Z,2.50
2022-11-05T09:07:03.984Z,1.95
2022-11-05T09:09:36.201Z,1.80
2022-11-05T09:12:12.921Z,1.82
2022-11-05T09:14:42.262Z,2.27
2022-11-05T09:17:20.761Z,2.87
2022-11-05T09:19:53.276Z,4.42
2022-11-05T09:22:25.338Z,2.35
2022-11-05T09:24:57.582Z,2.85
2022-11-05T09:27:29.576Z,3.22
2022-11-05T09:30:02.027Z,3.10
2022-11-05T09:32:34.238Z,3.10
2022-11-05T09:35:07.414Z,2.70
2022-11-05T09:37:39.437Z,2.50
2022-11-05T09:40:14.601Z,3.10
2022-11-05T09:42:48.016Z,3.85
2022-11-05T09:45:22.923Z,3.25
2022-11-05T09:48:00.888Z,3.05
2022-11-05T09:50:35.906Z,2.45
2022-11-05T09:53:09.089Z,5.87
2022-11-05T09:55:44.846Z,2.67
2022-11-05T09:58:28.394Z,2.83
2022-11-05T10:00:56.913Z,2.45
2022-11-05T10:03:31.308Z,2.92
2022-11-05T10:08:38.834Z,3.42
2022-11-05T10:11:17.570Z,3.70
2022-11-05T10:13:56.308Z,2.92
2022-11-05T10:16:34.260Z,2.92
2022-11-05T10:19:19.315Z,3.20
2022-11-05T10:22:05.636Z,2.65
2022-11-05T10:26:57.772Z,2.65
2022-11-05T10:29:32.750Z,3.12
2022-11-05T10:32:07.532Z,4.15
2022-11-05T10:34:41.138Z,3.15
2022-11-05T10:37:13.517Z,3.60
2022-11-05T10:39:45.579Z,2.80
2022-11-05T10:42:26.618Z,2.92
2022-11-05T10:45:07.616Z,2.70
2022-11-05T10:47:51.165Z,3.10
2022-11-05T10:50:26.245Z,3.27
2022-11-05T10:53:10.227Z,3.77
2022-11-05T10:55:45.217Z,3.20
2022-11-05T10:58:23.370Z,3.22
2022-11-05T11:00:58.285Z,3.40
2022-11-05T11:03:36.457Z,2.58
2022-11-05T11:06:29.588Z,2.70
2022-11-05T11:09:10.327Z,2.92
2022-11-05T11:11:43.820Z,2.30
2022-11-05T11:14:19.230Z,2.65
2022-11-05T11:16:54.463Z,3.10
2022-11-05T11:19:37.075Z,3.58
2022-11-05T11:22:12.038Z,3.00
2022-11-05T11:24:47.996Z,3.65
2022-11-05T11:27:31.478Z,3.60
2022-11-05T11:30:06.288Z,3.12
2022-11-05T11:32:40.596Z,3.10
2022-11-05T11:35:27.127Z,3.08
2022-11-05T11:38:01.625Z,4.58
2022-11-05T11:40:36.583Z,2.83
2022-11-05T11:43:17.126Z,3.08
2022-11-05T11:45:51.964Z,2.77
2022-11-05T11:48:32.051Z,2.75
2022-11-05T11:51:18.755Z,2.80
2022-11-05T11:53:51.559Z,3.10
2022-11-05T11:56:23.568Z,3.27
2022-11-05T11:58:57.650Z,3.58
2022-11-05T12:01:44.598Z,3.25
2022-11-05T12:04:35.822Z,3.35
2022-11-05T12:07:13.943Z,3.65
2022-11-05T12:10:12.568Z,4.25
2022-11-05T12:13:17.490Z,3.12
2022-11-05T12:16:04.754Z,3.60
2022-11-05T12:18:57.791Z,3.60
2022-11-05T12:21:51.879Z,4.45
2022-11-05T12:24:21.909Z,3.40
2022-11-05T12:27:10.456Z,3.20
2022-11-05T12:30:01.331Z,2.98
2022-11-05T12:33:04.815Z,2.87
2022-11-05T12:36:00.418Z,2.92
2022-11-05T12:38:52.817Z,3.52
2022-11-05T12:41:27.789Z,3.75
2022-11-05T12:44:11.545Z,4.00
2022-11-05T12:47:02.596Z,3.50
2022-11-05T12:50:05.749Z,2.90
2022-11-05T12:52:46.365Z,3.90
2022-11-05T12:55:21.141Z,3.25
2022-11-05T12:57:55.977Z,4.17
2022-11-05T13:00:30.196Z,3.83
2022-11-05T13:03:19.940Z,3.25
2022-11-05T13:06:02.906Z,2.90
2022-11-05T13:08:54.782Z,2.85
2022-11-05T13:11:41.365Z,3.80
2022-11-05T13:14:18.829Z,3.30
2022-11-05T13:16:53.632Z,4.00
2022-11-05T13:19:40.254Z,4.25
2022-11-05T13:22:39.462Z,4.50
2022-11-05T13:25:20.069Z,4.70
2022-11-05T13:27:57.825Z,5.10
2022-11-05T13:30:37.720Z,4.55
2022-11-05T13:33:30.810Z,4.35
2022-11-05T13:36:26.320Z,3.75
2022-11-05T13:39:09.725Z,3.45
2022-11-05T13:42:04.156Z,3.77
2022-11-05T13:44:44.843Z,3.45
2022-11-05T13:47:37.440Z,4.30
2022-11-05T13:50:15.108Z,4.25
2022-11-05T13:52:58.762Z,4.28
2022-11-05T13:55:42.622Z,4.40
2022-11-05T13:58:32.349Z,5.62
2022-11-05T14:01:16.320Z,4.35
2022-11-05T14:03:54.024Z,4.83
2022-11-05T14:06:31.661Z,5.08
2022-11-05T14:09:12.388Z,5.28
2022-11-05T14:11:47.494Z,6.10
2022-11-05T14:14:28.273Z,5.90
2022-11-05T14:17:12.180Z,7.67
2022-11-05T14:20:06.492Z,6.90
2022-11-05T14:22:41.912Z,6.08
2022-11-05T14:25:23.385Z,5.85
2022-11-05T14:27:55.866Z,6.00
2022-11-05T14:30:47.913Z,6.47
2022-11-05T14:33:28.358Z,6.15
2022-11-05T14:36:24.162Z,5.70
2022-11-05T14:39:04.148Z,4.92
2022-11-05T14:41:32.666Z,5.67
2022-11-05T14:44:09.159Z,5.58
2022-11-05T14:46:49.948Z,4.67
2022-11-05T14:49:26.275Z,5.30
2022-11-05T14:52:01.589Z,5.42
2022-11-05T14:54:41.961Z,5.22
2022-11-05T14:57:16.382Z,6.00
2022-11-05T15:00:00.677Z,6.25
2022-11-05T15:02:38.963Z,4.90
2022-11-05T15:05:42.616Z,5.35
2022-11-05T15:08:26.879Z,5.10
2022-11-05T15:11:10.499Z,5.50
2022-11-05T15:14:00.107Z,6.00
2022-11-05T15:16:47.111Z,4.65
2022-11-05T15:19:24.832Z,4.60
2022-11-05T15:22:00.376Z,4.67
2022-11-05T15:24:33.401Z,5.10
2022-11-05T15:27:16.927Z,4.58
2022-11-05T15:29:49.093Z,5.50
2022-11-05T15:32:23.868Z,4.87
2022-11-05T15:34:57.486Z,4.58
2022-11-05T15:37:29.842Z,4.72
2022-11-05T15:40:01.888Z,4.67
2022-11-05T15:42:34.288Z,4.50
2022-11-05T15:45:08.842Z,5.22
2022-11-05T15:47:43.767Z,5.20
2022-11-05T15:50:17.342Z,5.05
2022-11-05T15:52:51.854Z,4.78
2022-11-05T15:55:26.597Z,5.15
2022-11-05T15:58:07.407Z,5.15
2022-11-05T16:00:39.652Z,4.70
2022-11-05T16:03:32.779Z,5.45
2022-11-05T16:06:06.256Z,4.40
2022-11-05T16:08:38.638Z,5.03
2022-11-05T16:11:12.387Z,4.70
2022-11-05T16:13:44.473Z,5.10
2022-11-05T16:16:21.426Z,5.37
2022-11-05T16:18:53.481Z,4.90
2022-11-05T16:21:25.482Z,5.20
2022-11-05T16:24:00.419Z,5.42
2022-11-05T16:27:02.261Z,4.50
2022-11-05T16:29:21.278Z,5.30
2022-11-05T16:31:56.541Z,4.75
2022-11-05T16:34:39.942Z,4.80
2022-11-05T16:37:17.330Z,4.57
2022-11-05T16:39:49.695Z,4.20
2022-11-05T16:42:27.285Z,5.53
2022-11-05T16:44:59.527Z,5.03
2022-11-05T16:47:33.178Z,5.40
2022-11-05T16:50:20.059Z,5.35
2022-11-05T16:52:52.641Z,5.20
2022-11-05T16:55:24.614Z,4.70
2022-11-05T16:57:57.206Z,5.12
2022-11-05T17:00:29.656Z,5.35
2022-11-05T17:03:01.537Z,5.83
2022-11-05T17:05:33.896Z,4.50
2022-11-05T17:08:05.778Z,5.28
2022-11-05T17:10:37.942Z,4.90
2022-11-05T17:13:12.474Z,4.60
2022-11-05T17:15:46.685Z,4.25
2022-11-05T17:18:19.758Z,4.87
2022-11-05T17:20:54.632Z,5.08
2022-11-05T17:23:27.431Z,4.45
2022-11-05T17:26:02.265Z,4.47
2022-11-05T17:28:35.169Z,4.50
2022-11-05T17:31:10.466Z,4.17
2022-11-05T17:33:42.857Z,4.62
2022-11-05T17:36:16.740Z,4.20
2022-11-05T17:38:48.789Z,4.45
2022-11-05T17:41:22.924Z,4.20
2022-11-05T17:43:56.629Z,4.42
2022-11-05T17:46:28.931Z,4.58
2022-11-05T17:49:01.072Z,4.83
2022-11-05T17:51:34.375Z,4.40
2022-11-05T17:54:07.618Z,3.75
2022-11-05T17:56:44.494Z,4.60
2022-11-05T17:59:15.242Z,3.98
2022-11-05T18:01:47.519Z,4.53
2022-11-05T18:04:19.673Z,4.17
2022-11-05T18:06:51.716Z,4.33
2022-11-05T18:09:23.598Z,4.40
2022-11-05T18:11:56.152Z,4.78
2022-11-05T18:14:28.393Z,4.60
2022-11-05T18:17:03.382Z,5.60
2022-11-05T18:19:37.099Z,4.37
2022-11-05T18:22:09.204Z,4.47
2022-11-05T18:24:41.397Z,4.10
2022-11-05T18:27:13.874Z,4.25
2022-11-05T18:29:46.529Z,4.65
2022-11-05T18:32:18.559Z,5.50
2022-11-05T18:34:50.868Z,4.90
2022-11-05T18:37:23.184Z,5.05
2022-11-05T18:39:55.481Z,8.20
2022-11-05T18:42:27.452Z,4.95
2022-11-05T18:44:59.518Z,5.28
2022-11-05T18:47:33.830Z,3.72
2022-11-05T18:50:07.431Z,5.62
2022-11-05T18:52:39.376Z,5.12
2022-11-05T18:55:11.533Z,4.97
2022-11-05T18:57:43.420Z,5.55
2022-11-05T19:00:15.915Z,5.78
2022-11-05T19:02:48.078Z,5.05
2022-11-05T19:05:29.069Z,4.92
2022-11-05T19:07:54.131Z,4.10
2022-11-05T19:10:26.817Z,5.10
2022-11-05T19:12:58.898Z,5.62
2022-11-05T19:15:30.778Z,5.12
2022-11-05T19:18:02.650Z,5.12
2022-11-05T19:20:37.803Z,4.87
2022-11-05T19:23:08.386Z,5.33
2022-11-05T19:25:40.547Z,5.25
2022-11-05T19:28:12.686Z,5.17
2022-11-05T19:30:46.479Z,5.85
2022-11-05T19:33:18.471Z,5.33
2022-11-05T19:35:50.598Z,5.70
2022-11-05T19:38:22.884Z,5.35
2022-11-05T19:40:54.983Z,5.03
2022-11-05T19:43:27.224Z,5.80
2022-11-05T19:45:59.105Z,5.67
2022-11-05T19:48:31.738Z,5.83
2022-11-05T19:51:06.686Z,6.45
2022-11-05T19:53:39.661Z,5.70
2022-11-05T19:56:14.342Z,5.78
2022-11-05T19:58:46.550Z,5.10
2022-11-05T20:01:19.528Z,5.95
2022-11-05T20:03:52.095Z,5.87
2022-11-05T20:06:28.811Z,6.55
2022-11-05T20:11:39.505Z,6.00
2022-11-05T20:14:11.875Z,6.87
2022-11-05T20:16:44.012Z,6.62
2022-11-05T20:19:18.620Z,6.85
2022-11-05T20:21:50.637Z,7.30
2022-11-05T20:24:25.266Z,6.85
2022-11-05T20:26:57.679Z,7.03
2022-11-05T20:29:35.287Z,6.65
2022-11-05T20:32:04.860Z,7.28
2022-11-05T20:34:37.326Z,6.25
2022-11-05T20:37:09.500Z,6.55
2022-11-05T20:39:41.681Z,6.15
2022-11-05T20:42:14.093Z,7.05
2022-11-05T20:44:45.928Z,6.20
2022-11-05T20:47:18.103Z,6.62
2022-11-05T20:49:50.585Z,6.50
2022-11-05T20:52:22.846Z,6.15
2022-11-05T20:54:55.059Z,7.28
2022-11-05T20:57:27.916Z,6.15
2022-11-05T21:00:00.002Z,7.30
2022-11-05T21:02:33.952Z,6.37
2022-11-05T21:05:07.516Z,6.53
2022-11-05T21:07:39.555Z,7.10
2022-11-05T21:10:12.071Z,7.05
2022-11-05T21:12:45.017Z,5.28
2022-11-05T21:15:18.721Z,7.35
2022-11-05T21:17:51.542Z,6.05
2022-11-05T21:20:23.589Z,7.00
2022-11-05T21:22:55.818Z,7.00
2022-11-05T21:25:27.882Z,7.40
2022-11-05T21:28:00.336Z,6.45
2022-11-05T21:30:32.278Z,7.40
2022-11-05T21:33:05.357Z,7.10
2022-11-05T21:35:44.174Z,6.45
2022-11-05T21:38:17.524Z,7.75
2022-11-05T21:40:49.621Z,6.67
2022-11-05T21:43:21.729Z,7.78
2022-11-05T21:45:53.815Z,7.95
2022-11-05T21:48:26.073Z,7.80
2022-11-05T21:51:15.559Z,7.20
2022-11-05T21:54:05.692Z,7.20
2022-11-05T21:56:55.323Z,7.10
2022-11-05T21:59:45.100Z,6.62
2022-11-05T22:02:26.656Z,7.50
2022-11-05T22:05:00.172Z,7.00
2022-11-05T22:07:35.596Z,7.37
2022-11-05T22:10:14.857Z,7.55
2022-11-05T22:12:44.654Z,7.22
2022-11-05T22:15:16.779Z,6.78
2022-11-05T22:17:52.990Z,6.95
2022-11-05T22:20:25.935Z,7.17
2022-11-05T22:22:57.959Z,6.33
2022-11-05T22:25:29.804Z,6.65
2022-11-05T22:28:01.746Z,7.55
2022-11-05T22:30:36.997Z,7.50
2022-11-05T22:33:09.020Z,7.05
2022-11-05T22:35:41.493Z,6.22
2022-11-05T22:38:13.929Z,7.03
2022-11-05T22:40:46.337Z,6.42
2022-11-05T22:43:19.049Z,7.00
2022-11-05T22:45:51.628Z,6.45
2022-11-05T22:48:23.685Z,7.10
2022-11-05T22:50:55.901Z,7.30
2022-11-05T22:53:27.979Z,6.87
2022-11-05T22:55:59.908Z,7.05
2022-11-05T22:58:32.168Z,6.92
2022-11-05T23:01:05.028Z,6.87
2022-11-05T23:03:37.922Z,7.15
2022-11-05T23:06:17.374Z,7.03
2022-11-05T23:09:06.096Z,7.35
2022-11-05T23:11:41.047Z,6.95
2022-11-05T23:14:14.659Z,7.20
2022-11-05T23:17:05.053Z,7.12
2022-11-05T23:19:55.367Z,6.30
2022-11-05T23:22:47.412Z,7.47
2022-11-05T23:25:22.141Z,7.35
2022-11-05T23:27:55.614Z,6.33
2022-11-05T23:30:29.451Z,6.97
2022-11-05T23:33:01.615Z,7.08
2022-11-05T23:35:52.823Z,7.50
2022-11-05T23:38:38.110Z,7.03
2022-11-05T23:41:28.857Z,7.25
2022-11-05T23:44:18.945Z,6.90
2022-11-05T23:47:08.817Z,7.30
2022-11-05T23:49:41.389Z,7.50
2022-11-05T23:52:13.416Z,7.70
2022-11-05T23:54:45.733Z,7.28
2022-11-05T23:57:18.067Z,7.42
2022-11-05T23:59:50.041Z,7.20
